createdAt,value
2019-04-04T00:00:15.992Z,8.50
2019-04-04T00:02:21.078Z,8.30
2019-04-04T00:04:26.614Z,8.28
2019-04-04T00:06:33.367Z,9.40
2019-04-04T00:08:38.866Z,9.03
2019-04-04T00:10:44.402Z,9.60
2019-04-04T00:12:49.985Z,9.38
2019-04-04T00:14:55.555Z,7.55
2019-04-04T00:17:01.052Z,10.05
2019-04-04T00:19:06.643Z,8.20
2019-04-04T00:21:12.122Z,8.38
2019-04-04T00:23:17.666Z,9.08
2019-04-04T00:25:23.296Z,9.95
2019-04-04T00:27:28.846Z,10.00
2019-04-04T00:29:34.552Z,9.95
2019-04-04T00:31:40.047Z,10.35
2019-04-04T00:33:46.115Z,9.90
2019-04-04T00:35:51.639Z,9.63
2019-04-04T00:37:57.168Z,8.35
2019-04-04T00:40:02.755Z,8.75
2019-04-04T00:42:08.258Z,9.40
2019-04-04T00:44:13.778Z,8.78
2019-04-04T00:46:19.322Z,9.45
2019-04-04T00:48:25.014Z,10.48
2019-04-04T00:50:30.510Z,9.70
2019-04-04T00:52:37.019Z,9.75
2019-04-04T00:54:43.014Z,9.70
2019-04-04T00:56:49.721Z,9.88
2019-04-04T00:58:55.258Z,10.00
2019-04-04T01:01:00.950Z,9.78
2019-04-04T01:03:06.952Z,10.03
2019-04-04T01:05:12.463Z,10.30
2019-04-04T01:07:17.995Z,10.18
2019-04-04T01:09:23.586Z,10.03
2019-04-04T01:11:29.137Z,10.95
2019-04-04T01:13:34.799Z,11.65
2019-04-04T01:15:40.360Z,10.13
2019-04-04T01:17:45.930Z,10.53
2019-04-04T01:19:52.750Z,11.53
2019-04-04T01:21:58.376Z,10.30
2019-04-04T01:24:04.034Z,10.72
2019-04-04T01:26:09.683Z,11.22
2019-04-04T01:28:15.263Z,11.88
2019-04-04T01:30:20.921Z,10.63
2019-04-04T01:32:26.440Z,12.10
2019-04-04T01:34:32.019Z,10.68
2019-04-04T01:36:37.503Z,10.28
2019-04-04T01:38:42.971Z,11.70
2019-04-04T01:40:48.455Z,11.25
2019-04-04T01:42:53.984Z,11.70
2019-04-04T01:44:59.384Z,14.07
2019-04-04T01:47:04.855Z,11.57
2019-04-04T01:49:10.302Z,10.95
2019-04-04T01:51:15.741Z,10.88
2019-04-04T01:53:21.214Z,12.75
2019-04-04T01:55:26.690Z,12.63
2019-04-04T01:57:32.205Z,11.88
2019-04-04T01:59:37.759Z,12.05
2019-04-04T02:01:43.203Z,14.05
2019-04-04T02:03:48.660Z,10.93
2019-04-04T02:05:54.099Z,12.75
2019-04-04T02:08:01.003Z,11.48
2019-04-04T02:10:06.697Z,12.43
2019-04-04T02:12:12.258Z,13.62
2019-04-04T02:14:19.488Z,12.82
2019-04-04T02:16:25.166Z,12.25
2019-04-04T02:18:30.731Z,12.15
2019-04-04T02:20:36.385Z,13.75
2019-04-04T02:22:41.914Z,12.15
2019-04-04T02:24:47.379Z,12.60
2019-04-04T02:26:52.882Z,12.10
2019-04-04T02:28:58.355Z,12.75
2019-04-04T02:31:05.570Z,12.35
2019-04-04T02:33:11.095Z,12.35
2019-04-04T02:35:16.536Z,12.73
2019-04-04T02:37:22.140Z,13.40
2019-04-04T02:39:27.582Z,12.53
2019-04-04T02:41:33.034Z,12.50
2019-04-04T02:43:38.499Z,13.80
2019-04-04T02:45:43.943Z,13.83
2019-04-04T02:47:51.266Z,13.03
2019-04-04T02:50:00.560Z,12.20
2019-04-04T02:52:03.768Z,11.20
2019-04-04T02:54:09.252Z,13.78
2019-04-04T02:56:14.731Z,12.43
2019-04-04T02:58:20.271Z,13.30
2019-04-04T03:00:26.779Z,13.72
2019-04-04T03:02:36.151Z,14.47
2019-04-04T03:04:40.100Z,11.57
2019-04-04T03:06:45.543Z,12.50
2019-04-04T03:08:51.076Z,11.00
2019-04-04T03:10:56.677Z,13.28
2019-04-04T03:13:08.838Z,13.00
2019-04-04T03:15:14.739Z,11.73
2019-04-04T03:17:20.224Z,12.60
2019-04-04T03:19:25.821Z,13.35
2019-04-04T03:21:31.255Z,11.70
2019-04-04T03:23:39.776Z,12.93
2019-04-04T03:25:47.398Z,11.97
2019-04-04T03:27:52.509Z,11.50
2019-04-04T03:29:58.027Z,12.53
2019-04-04T03:32:03.481Z,12.43
2019-04-04T03:34:11.867Z,12.55
2019-04-04T03:36:16.191Z,12.60
2019-04-04T03:38:21.949Z,12.28
2019-04-04T03:40:27.493Z,12.98
2019-04-04T03:42:32.942Z,12.70
2019-04-04T03:44:38.486Z,13.43
2019-04-04T03:46:43.995Z,13.03
2019-04-04T03:48:50.913Z,13.90
2019-04-04T03:50:57.411Z,14.07
2019-04-04T03:53:03.337Z,13.75
2019-04-04T03:55:08.869Z,13.80
2019-04-04T03:57:14.412Z,13.72
2019-04-04T03:59:19.970Z,12.68
2019-04-04T04:01:25.450Z,14.05
2019-04-04T04:03:31.399Z,13.20
2019-04-04T04:05:40.603Z,14.73
2019-04-04T04:07:45.862Z,13.80
2019-04-04T04:09:51.519Z,11.55
2019-04-04T04:11:56.960Z,11.80
2019-04-04T04:14:02.602Z,12.55
2019-04-04T04:16:08.144Z,14.23
2019-04-04T04:18:13.667Z,11.57
2019-04-04T04:20:19.251Z,12.35
2019-04-04T04:22:24.835Z,13.45
2019-04-04T04:24:30.473Z,11.57
2019-04-04T04:26:36.023Z,12.33
2019-04-04T04:28:41.523Z,13.10
2019-04-04T04:30:47.048Z,12.50
2019-04-04T04:32:55.738Z,12.73
2019-04-04T04:34:59.899Z,13.20
2019-04-04T04:37:05.352Z,14.00
2019-04-04T04:39:10.891Z,13.20
2019-04-04T04:41:19.747Z,13.20
2019-04-04T04:43:23.583Z,13.98
2019-04-04T04:45:29.563Z,14.33
2019-04-04T04:47:35.109Z,14.75
2019-04-04T04:49:40.639Z,14.23
2019-04-04T04:51:48.702Z,13.30
2019-04-04T04:53:54.198Z,13.78
2019-04-04T04:56:00.585Z,14.15
2019-04-04T04:58:09.958Z,14.45
2019-04-04T05:00:14.025Z,14.43
2019-04-04T05:02:22.369Z,13.25
2019-04-04T05:04:28.365Z,14.58
2019-04-04T05:06:35.766Z,13.38
2019-04-04T05:08:41.683Z,13.78
2019-04-04T05:10:47.150Z,14.78
2019-04-04T05:12:53.161Z,14.43
2019-04-04T05:15:01.273Z,17.27
2019-04-04T05:17:11.670Z,17.40
2019-04-04T05:19:19.011Z,16.85
2019-04-04T05:21:27.360Z,20.02
2019-04-04T05:23:31.858Z,20.45
2019-04-04T05:25:51.648Z,17.95
2019-04-04T05:27:46.979Z,18.15
2019-04-04T05:29:52.540Z,20.25
2019-04-04T05:31:58.078Z,19.45
2019-04-04T05:34:06.552Z,19.57
2019-04-04T05:36:12.155Z,19.35
2019-04-04T05:38:17.689Z,17.48
2019-04-04T05:40:24.166Z,14.80
2019-04-04T05:42:32.777Z,12.07
2019-04-04T05:44:36.891Z,14.40
2019-04-04T05:46:42.414Z,11.45
2019-04-04T05:48:51.234Z,12.18
2019-04-04T05:50:58.258Z,11.55
2019-04-04T05:53:04.850Z,11.63
2019-04-04T05:55:11.020Z,11.70
2019-04-04T05:57:17.956Z,13.45
2019-04-04T05:59:26.431Z,10.50
2019-04-04T06:01:34.920Z,10.28
2019-04-04T06:03:41.763Z,11.35
2019-04-04T06:05:47.370Z,13.05
2019-04-04T06:07:54.482Z,12.23
2019-04-04T06:10:01.501Z,11.33
2019-04-04T06:12:07.009Z,12.20
2019-04-04T06:14:12.485Z,12.35
2019-04-04T06:16:17.918Z,9.63
2019-04-04T06:18:23.840Z,10.23
2019-04-04T06:20:29.411Z,11.78
2019-04-04T06:22:34.888Z,11.15
2019-04-04T06:24:40.371Z,10.43
2019-04-04T06:26:46.021Z,10.35
2019-04-04T06:28:51.543Z,11.20
2019-04-04T06:30:57.131Z,10.20
2019-04-04T06:33:04.809Z,10.23
2019-04-04T06:35:09.843Z,8.93
2019-04-04T06:37:15.400Z,9.90
2019-04-04T06:39:20.822Z,10.43
2019-04-04T06:41:28.518Z,9.50
2019-04-04T06:43:33.983Z,11.05
2019-04-04T06:45:39.280Z,9.53
2019-04-04T06:47:44.529Z,10.83
2019-04-04T06:49:49.690Z,10.23
2019-04-04T06:51:57.597Z,10.50
2019-04-04T06:54:02.803Z,10.07
2019-04-04T06:56:08.010Z,10.83
2019-04-04T06:58:17.116Z,9.40
2019-04-04T07:00:22.479Z,10.20
2019-04-04T07:02:32.546Z,9.90
2019-04-04T07:04:43.352Z,10.03
2019-04-04T07:06:48.567Z,11.27
2019-04-04T07:08:53.809Z,10.27
2019-04-04T07:11:02.678Z,11.10
2019-04-04T07:13:20.436Z,9.27
2019-04-04T07:15:15.714Z,10.57
2019-04-04T07:17:19.979Z,10.00
2019-04-04T07:19:25.250Z,11.03
2019-04-04T07:21:30.547Z,10.40
2019-04-04T07:23:35.814Z,8.80
2019-04-04T07:25:41.040Z,10.30
2019-04-04T07:27:47.409Z,11.67
2019-04-04T07:29:56.485Z,11.13
2019-04-04T07:32:00.007Z,10.07
2019-04-04T07:34:05.316Z,10.60
2019-04-04T07:36:10.578Z,11.27
2019-04-04T07:38:16.630Z,11.03
2019-04-04T07:40:21.815Z,10.70
2019-04-04T07:42:27.006Z,10.57
2019-04-04T07:44:32.227Z,11.57
2019-04-04T07:46:40.922Z,11.33
2019-04-04T07:48:44.279Z,12.97
2019-04-04T07:50:51.403Z,9.30
2019-04-04T07:52:56.330Z,11.20
2019-04-04T07:55:01.491Z,11.03
2019-04-04T07:57:06.726Z,10.30
2019-04-04T07:59:11.892Z,10.10
2019-04-04T08:01:17.389Z,9.70
2019-04-04T08:03:25.531Z,10.78
2019-04-04T08:05:31.082Z,10.55
2019-04-04T08:07:36.546Z,10.40
2019-04-04T08:09:41.990Z,11.73
2019-04-04T08:11:47.170Z,12.50
2019-04-04T08:13:52.322Z,11.73
2019-04-04T08:15:57.669Z,10.83
2019-04-04T08:18:02.925Z,10.30
2019-04-04T08:20:08.162Z,10.10
2019-04-04T08:22:13.474Z,9.60
2019-04-04T08:24:18.778Z,10.83
2019-04-04T08:26:24.220Z,10.00
2019-04-04T08:28:29.458Z,10.70
2019-04-04T08:30:34.643Z,9.93
2019-04-04T08:32:39.867Z,8.33
2019-04-04T08:34:45.107Z,10.60
2019-04-04T08:36:50.263Z,10.33
2019-04-04T08:38:55.414Z,8.70
2019-04-04T08:41:00.574Z,9.17
2019-04-04T08:43:05.738Z,8.17
2019-04-04T08:45:11.318Z,7.37
2019-04-04T08:47:16.514Z,7.60
2019-04-04T08:49:21.682Z,8.10
2019-04-04T08:51:26.851Z,8.40
2019-04-04T08:53:39.748Z,8.63
2019-04-04T08:55:38.858Z,8.30
2019-04-04T08:57:44.051Z,8.13
2019-04-04T08:59:49.302Z,8.37
2019-04-04T09:01:54.511Z,9.50
2019-04-04T09:03:59.654Z,9.23
2019-04-04T09:06:04.866Z,9.50
2019-04-04T09:08:10.083Z,9.10
2019-04-04T09:10:16.823Z,8.83
2019-04-04T09:12:22.010Z,8.67
2019-04-04T09:14:27.314Z,10.20
2019-04-04T09:16:32.566Z,8.23
2019-04-04T09:18:37.803Z,8.97
2019-04-04T09:20:42.999Z,7.80
2019-04-04T09:22:48.153Z,8.50
2019-04-04T09:24:53.388Z,6.83
2019-04-04T09:26:58.595Z,8.77
2019-04-04T09:29:03.842Z,7.93
2019-04-04T09:31:09.030Z,7.80
2019-04-04T09:33:14.188Z,8.17
2019-04-04T09:35:19.422Z,8.30
2019-04-04T09:37:24.562Z,8.73
2019-04-04T09:39:29.789Z,8.53
2019-04-04T09:41:35.069Z,7.57
2019-04-04T09:43:42.038Z,8.00
2019-04-04T09:45:47.170Z,7.23
2019-04-04T09:47:52.376Z,7.10
2019-04-04T09:49:58.131Z,8.07
2019-04-04T09:52:03.326Z,7.40
2019-04-04T09:54:08.490Z,7.23
2019-04-04T09:56:13.676Z,6.30
2019-04-04T09:58:18.978Z,7.40
2019-04-04T10:00:24.444Z,5.90
2019-04-04T10:02:29.671Z,5.67
2019-04-04T10:04:34.898Z,5.30
2019-04-04T10:06:40.155Z,5.47
2019-04-04T10:08:45.541Z,6.23
2019-04-04T10:10:50.879Z,5.47
2019-04-04T10:12:56.087Z,6.23
2019-04-04T10:15:01.282Z,6.57
2019-04-04T10:17:06.870Z,5.97
2019-04-04T10:19:12.038Z,5.77
2019-04-04T10:21:17.213Z,5.60
2019-04-04T10:23:22.379Z,6.03
2019-04-04T10:25:27.538Z,5.73
2019-04-04T10:27:32.691Z,6.10
2019-04-04T10:29:37.873Z,5.80
2019-04-04T10:31:43.128Z,5.90
2019-04-04T10:33:48.512Z,5.10
2019-04-04T10:35:53.731Z,5.47
2019-04-04T10:37:58.966Z,5.57
2019-04-04T10:40:04.414Z,6.10
2019-04-04T10:42:09.639Z,5.87
2019-04-04T10:44:14.774Z,5.57
2019-04-04T10:46:19.924Z,6.47
2019-04-04T10:48:25.106Z,6.43
2019-04-04T10:50:30.347Z,6.60
2019-04-04T10:52:35.544Z,5.27
2019-04-04T10:54:41.687Z,5.77
2019-04-04T10:56:46.851Z,6.57
2019-04-04T10:58:52.302Z,5.83
2019-04-04T11:00:57.567Z,6.27
2019-04-04T11:03:02.769Z,6.10
2019-04-04T11:05:08.827Z,6.43
2019-04-04T11:07:14.073Z,6.20
2019-04-04T11:09:19.376Z,5.83
2019-04-04T11:11:24.641Z,7.03
2019-04-04T11:13:33.713Z,6.60
2019-04-04T11:15:36.843Z,7.00
2019-04-04T11:17:42.090Z,5.67
2019-04-04T11:19:47.319Z,6.20
2019-04-04T11:21:52.492Z,6.33
2019-04-04T11:23:57.666Z,6.00
2019-04-04T11:26:02.998Z,6.50
2019-04-04T11:28:08.139Z,6.27
2019-04-04T11:30:13.703Z,7.00
2019-04-04T11:32:18.894Z,6.80
2019-04-04T11:34:24.050Z,7.10
2019-04-04T11:36:29.497Z,6.70
2019-04-04T11:38:34.679Z,6.93
2019-04-04T11:40:39.852Z,6.77
2019-04-04T11:42:45.078Z,6.40
2019-04-04T11:44:50.287Z,5.90
2019-04-04T11:46:55.445Z,6.80
2019-04-04T11:49:00.755Z,7.00
2019-04-04T11:51:05.939Z,6.83
2019-04-04T11:53:11.086Z,6.73
2019-04-04T11:55:16.247Z,6.40
2019-04-04T11:57:23.812Z,7.63
2019-04-04T11:59:28.226Z,6.23
2019-04-04T12:01:34.767Z,7.37
2019-04-04T12:03:39.986Z,6.90
2019-04-04T12:05:45.154Z,6.40
2019-04-04T12:07:50.587Z,6.67
2019-04-04T12:10:06.767Z,7.70
2019-04-04T12:12:03.203Z,6.78
2019-04-04T12:14:08.755Z,6.80
2019-04-04T12:16:14.298Z,7.90
2019-04-04T12:18:19.743Z,7.33
2019-04-04T12:20:25.211Z,7.75
2019-04-04T12:22:30.678Z,7.15
2019-04-04T12:24:36.234Z,6.55
2019-04-04T12:26:41.738Z,8.18
2019-04-04T12:28:46.894Z,8.77
2019-04-04T12:30:52.098Z,6.70
2019-04-04T12:33:01.416Z,7.70
2019-04-04T12:35:06.825Z,8.10
2019-04-04T12:37:12.019Z,7.93
2019-04-04T12:39:17.222Z,6.93
2019-04-04T12:41:22.446Z,6.73
2019-04-04T12:43:27.610Z,7.27
2019-04-04T12:45:32.746Z,7.67
2019-04-04T12:47:37.967Z,8.30
2019-04-04T12:49:43.180Z,8.07
2019-04-04T12:51:48.322Z,7.70
2019-04-04T12:53:53.520Z,7.57
2019-04-04T12:55:58.758Z,7.80
2019-04-04T12:58:03.938Z,7.97
2019-04-04T13:00:09.539Z,8.30
2019-04-04T13:02:14.774Z,7.70
2019-04-04T13:04:30.716Z,8.73
2019-04-04T13:06:26.830Z,7.53
2019-04-04T13:08:31.999Z,7.77
2019-04-04T13:10:37.178Z,6.90
2019-04-04T13:12:42.315Z,7.17
2019-04-04T13:14:47.486Z,7.23
2019-04-04T13:16:52.751Z,7.00
2019-04-04T13:18:57.899Z,7.43
2019-04-04T13:21:03.078Z,7.53
2019-04-04T13:23:08.269Z,7.40
2019-04-04T13:25:13.500Z,7.83
2019-04-04T13:27:18.750Z,8.40
2019-04-04T13:29:23.922Z,7.70
2019-04-04T13:31:29.166Z,8.57
2019-04-04T13:33:34.334Z,7.87
2019-04-04T13:35:39.455Z,8.40
2019-04-04T13:37:44.651Z,8.47
2019-04-04T13:39:49.862Z,7.77
2019-04-04T13:41:55.003Z,8.17
2019-04-04T13:44:00.249Z,8.00
2019-04-04T13:46:05.529Z,7.53
2019-04-04T13:48:12.676Z,7.53
2019-04-04T13:50:20.473Z,7.30
2019-04-04T13:52:27.450Z,7.30
2019-04-04T13:54:32.621Z,6.87
2019-04-04T13:56:37.851Z,6.07
2019-04-04T13:58:43.023Z,7.53
2019-04-04T14:00:48.174Z,7.10
2019-04-04T14:02:53.332Z,7.27
2019-04-04T14:05:09.237Z,7.10
2019-04-04T14:07:05.526Z,6.37
2019-04-04T14:09:12.463Z,6.43
2019-04-04T14:11:17.809Z,7.23
2019-04-04T14:13:25.968Z,7.00
2019-04-04T14:15:29.912Z,6.80
2019-04-04T14:17:35.066Z,7.40
2019-04-04T14:19:40.297Z,6.83
2019-04-04T14:21:45.470Z,8.10
2019-04-04T14:23:52.930Z,7.43
2019-04-04T14:25:59.660Z,7.70
2019-04-04T14:28:04.375Z,6.40
2019-04-04T14:30:10.649Z,8.53
2019-04-04T14:32:15.934Z,6.83
2019-04-04T14:34:21.220Z,6.50
2019-04-04T14:36:26.544Z,7.47
2019-04-04T14:38:31.853Z,8.53
2019-04-04T14:40:37.082Z,7.47
2019-04-04T14:42:42.363Z,7.40
2019-04-04T14:44:47.541Z,7.23
2019-04-04T14:46:52.760Z,7.17
2019-04-04T14:48:57.906Z,8.50
2019-04-04T14:51:03.091Z,8.53
2019-04-04T14:53:08.243Z,8.20
2019-04-04T14:55:13.454Z,6.73
2019-04-04T14:57:18.638Z,8.07
2019-04-04T14:59:23.828Z,8.00
2019-04-04T15:01:29.066Z,7.20
2019-04-04T15:03:34.297Z,6.37
2019-04-04T15:05:39.463Z,7.20
2019-04-04T15:07:44.734Z,6.60
2019-04-04T15:09:49.959Z,7.20
2019-04-04T15:11:55.098Z,6.37
2019-04-04T15:14:00.262Z,5.70
2019-04-04T15:16:16.213Z,5.80
2019-04-04T15:18:21.370Z,5.30
2019-04-04T15:20:26.507Z,6.03
2019-04-04T15:22:32.042Z,6.63
2019-04-04T15:24:37.322Z,6.07
2019-04-04T15:26:44.167Z,6.40
2019-04-04T15:28:49.335Z,5.57
2019-04-04T15:30:54.499Z,6.00
2019-04-04T15:33:02.395Z,6.20
2019-04-04T15:35:06.859Z,6.10
2019-04-04T15:37:11.990Z,6.20
2019-04-04T15:39:17.158Z,5.03
2019-04-04T15:41:22.322Z,5.63
2019-04-04T15:43:27.758Z,6.30
2019-04-04T15:45:33.654Z,5.70
2019-04-04T15:47:40.317Z,5.47
2019-04-04T15:49:48.876Z,5.90
2019-04-04T15:51:54.350Z,5.03
2019-04-04T15:53:59.848Z,5.50
2019-04-04T15:56:05.573Z,5.22
2019-04-04T15:58:11.062Z,5.97
2019-04-04T16:00:16.583Z,6.42
2019-04-04T16:02:22.042Z,4.85
2019-04-04T16:04:27.513Z,6.80
2019-04-04T16:06:32.998Z,6.40
2019-04-04T16:08:38.651Z,6.62
2019-04-04T16:10:44.080Z,5.70
2019-04-04T16:12:51.098Z,5.45
2019-04-04T16:14:56.647Z,5.22
2019-04-04T16:17:02.160Z,5.60
2019-04-04T16:19:07.630Z,6.20
2019-04-04T16:21:13.100Z,5.22
2019-04-04T16:23:18.850Z,5.92
2019-04-04T16:25:24.295Z,5.28
2019-04-04T16:27:30.075Z,5.80
2019-04-04T16:29:35.630Z,5.42
2019-04-04T16:31:41.108Z,5.22
2019-04-04T16:33:46.621Z,6.05
2019-04-04T16:35:52.330Z,5.65
2019-04-04T16:37:57.778Z,5.58
2019-04-04T16:40:09.193Z,6.22
2019-04-04T16:42:10.548Z,5.40
2019-04-04T16:44:16.054Z,5.65
2019-04-04T16:46:21.570Z,7.45
2019-04-04T16:48:27.002Z,5.83
2019-04-04T16:50:32.614Z,5.33
2019-04-04T16:52:38.061Z,5.97
2019-04-04T16:54:43.558Z,5.95
2019-04-04T16:56:48.999Z,5.22
2019-04-04T16:58:54.447Z,5.60
2019-04-04T17:01:00.031Z,5.67
2019-04-04T17:03:05.577Z,5.83
2019-04-04T17:05:11.458Z,5.70
2019-04-04T17:07:17.043Z,5.03
2019-04-04T17:09:22.511Z,5.70
2019-04-04T17:11:28.072Z,5.17
2019-04-04T17:13:33.585Z,5.97
2019-04-04T17:15:39.109Z,5.20
2019-04-04T17:17:44.586Z,5.30
2019-04-04T17:19:50.003Z,5.87
2019-04-04T17:21:55.420Z,5.90
2019-04-04T17:24:00.967Z,5.70
2019-04-04T17:26:06.374Z,6.22
2019-04-04T17:28:12.219Z,5.37
2019-04-04T17:30:18.591Z,5.50
2019-04-04T17:32:24.605Z,6.00
2019-04-04T17:34:30.090Z,5.53
2019-04-04T17:36:35.567Z,6.00
2019-04-04T17:38:41.545Z,5.00
2019-04-04T17:40:47.343Z,5.00
2019-04-04T17:42:53.207Z,5.65
2019-04-04T17:45:01.237Z,5.10
2019-04-04T17:47:06.636Z,5.45
2019-04-04T17:49:12.443Z,5.42
2019-04-04T17:51:17.961Z,5.75
2019-04-04T17:53:23.764Z,6.05
2019-04-04T17:55:29.884Z,5.67
2019-04-04T17:57:35.324Z,5.35
2019-04-04T17:59:40.773Z,5.50
2019-04-04T18:01:46.214Z,5.22
2019-04-04T18:03:51.629Z,6.17
2019-04-04T18:05:57.060Z,6.72
2019-04-04T18:08:02.521Z,6.05
2019-04-04T18:10:08.731Z,5.37
2019-04-04T18:12:16.763Z,5.17
2019-04-04T18:14:21.317Z,5.30
2019-04-04T18:16:26.749Z,5.05
2019-04-04T18:18:32.222Z,6.17
2019-04-04T18:20:37.710Z,6.65
2019-04-04T18:22:43.234Z,6.50
2019-04-04T18:24:49.136Z,6.25
2019-04-04T18:26:54.916Z,7.53
2019-04-04T18:29:00.330Z,6.25
2019-04-04T18:31:05.765Z,5.75
2019-04-04T18:33:11.644Z,6.08
2019-04-04T18:35:17.628Z,5.90
2019-04-04T18:37:23.710Z,6.35
2019-04-04T18:39:30.338Z,5.83
2019-04-04T18:41:36.184Z,6.47
2019-04-04T18:43:42.591Z,5.60
2019-04-04T18:45:48.407Z,5.28
2019-04-04T18:47:53.869Z,5.45
2019-04-04T18:49:59.548Z,5.67
2019-04-04T18:52:05.044Z,5.33
2019-04-04T18:54:10.535Z,5.50
2019-04-04T18:56:16.879Z,5.25
2019-04-04T18:58:22.526Z,5.40
2019-04-04T19:00:28.220Z,4.83
2019-04-04T19:02:34.148Z,5.87
2019-04-04T19:04:40.830Z,5.20
2019-04-04T19:06:47.005Z,5.30
2019-04-04T19:08:53.159Z,5.40
2019-04-04T19:10:58.783Z,5.60
2019-04-04T19:13:05.660Z,5.60
2019-04-04T19:15:11.846Z,5.00
2019-04-04T19:17:18.588Z,5.10
2019-04-04T19:19:24.110Z,5.25
2019-04-04T19:21:29.522Z,5.35
2019-04-04T19:23:43.580Z,5.45
2019-04-04T19:25:42.822Z,5.65
2019-04-04T19:27:48.460Z,6.12
2019-04-04T19:29:53.953Z,4.92
2019-04-04T19:31:59.492Z,5.17
2019-04-04T19:34:05.695Z,4.72
2019-04-04T19:36:11.192Z,5.65
2019-04-04T19:38:17.220Z,5.62
2019-04-04T19:40:24.103Z,5.95
2019-04-04T19:42:30.955Z,6.42
2019-04-04T19:44:37.108Z,5.30
2019-04-04T19:46:43.203Z,5.70
2019-04-04T19:48:48.855Z,6.12
2019-04-04T19:50:54.376Z,5.85
2019-04-04T19:53:00.196Z,5.65
2019-04-04T19:55:06.706Z,5.80
2019-04-04T19:57:16.649Z,6.05
2019-04-04T19:59:21.067Z,6.92
2019-04-04T20:01:26.888Z,6.28
2019-04-04T20:03:32.325Z,6.22
2019-04-04T20:05:37.778Z,6.60
2019-04-04T20:07:43.275Z,7.12
2019-04-04T20:09:48.688Z,6.85
2019-04-04T20:11:54.119Z,6.87
2019-04-04T20:13:59.670Z,6.28
2019-04-04T20:16:07.368Z,6.08
2019-04-04T20:18:12.844Z,5.60
2019-04-04T20:20:18.279Z,6.85
2019-04-04T20:22:23.778Z,6.42
2019-04-04T20:24:30.340Z,6.25
2019-04-04T20:26:35.871Z,7.60
2019-04-04T20:28:41.399Z,7.33
2019-04-04T20:30:46.834Z,6.40
2019-04-04T20:32:52.347Z,6.25
2019-04-04T20:34:58.083Z,6.65
2019-04-04T20:37:03.522Z,7.70
2019-04-04T20:39:09.082Z,6.42
2019-04-04T20:41:16.432Z,5.92
2019-04-04T20:43:21.614Z,5.83
2019-04-04T20:45:27.032Z,7.00
2019-04-04T20:47:37.094Z,6.33
2019-04-04T20:49:45.310Z,6.92
2019-04-04T20:51:51.185Z,6.22
2019-04-04T20:53:57.282Z,6.35
2019-04-04T20:56:02.802Z,6.40
2019-04-04T20:58:10.858Z,7.37
2019-04-04T21:00:16.984Z,7.92
2019-04-04T21:02:22.703Z,6.80
2019-04-04T21:04:29.258Z,5.95
2019-04-04T21:06:35.155Z,6.67
2019-04-04T21:08:45.839Z,5.35
2019-04-04T21:10:51.610Z,5.30
2019-04-04T21:13:03.685Z,6.55
2019-04-04T21:15:11.466Z,6.37
2019-04-04T21:17:17.271Z,5.58
2019-04-04T21:19:23.174Z,6.92
2019-04-04T21:21:28.891Z,6.42
2019-04-04T21:23:34.587Z,5.40
2019-04-04T21:25:40.815Z,5.92
2019-04-04T21:27:46.363Z,5.42
2019-04-04T21:29:51.975Z,5.90
2019-04-04T21:31:57.951Z,5.97
2019-04-04T21:34:04.217Z,5.95
2019-04-04T21:36:09.847Z,4.80
2019-04-04T21:38:17.982Z,5.67
2019-04-04T21:40:24.527Z,5.50
2019-04-04T21:42:37.444Z,5.47
2019-04-04T21:44:44.046Z,5.45
2019-04-04T21:46:49.721Z,6.20
2019-04-04T21:48:55.138Z,5.28
2019-04-04T21:51:00.608Z,5.40
2019-04-04T21:53:06.190Z,6.25
2019-04-04T21:55:11.720Z,5.75
2019-04-04T21:57:17.211Z,5.47
2019-04-04T21:59:22.722Z,5.95
2019-04-04T22:01:28.321Z,5.42
2019-04-04T22:03:36.716Z,5.60
2019-04-04T22:05:41.710Z,6.03
2019-04-04T22:07:50.666Z,5.87
2019-04-04T22:09:56.143Z,5.72
2019-04-04T22:12:01.609Z,5.83
2019-04-04T22:14:07.058Z,5.70
2019-04-04T22:16:12.531Z,6.28
2019-04-04T22:18:18.038Z,5.75
2019-04-04T22:20:23.459Z,5.97
2019-04-04T22:22:28.969Z,5.72
2019-04-04T22:24:34.403Z,6.10
2019-04-04T22:26:39.967Z,6.33
2019-04-04T22:28:45.409Z,7.37
2019-04-04T22:30:50.926Z,6.53
2019-04-04T22:32:56.374Z,6.67
2019-04-04T22:35:01.823Z,7.10
2019-04-04T22:37:07.322Z,6.90
2019-04-04T22:39:12.733Z,6.25
2019-04-04T22:41:18.216Z,7.12
2019-04-04T22:43:23.643Z,5.67
2019-04-04T22:45:29.095Z,7.00
2019-04-04T22:47:34.713Z,7.05
2019-04-04T22:49:40.200Z,6.22
2019-04-04T22:51:45.742Z,6.62
2019-04-04T22:53:51.226Z,6.12
2019-04-04T22:55:56.712Z,6.83
2019-04-04T22:58:03.799Z,6.78
2019-04-04T23:00:09.509Z,6.70
2019-04-04T23:02:14.994Z,7.05
2019-04-04T23:04:20.538Z,7.05
2019-04-04T23:06:26.003Z,7.03
2019-04-04T23:08:31.531Z,6.30
2019-04-04T23:10:36.975Z,7.10
2019-04-04T23:12:42.491Z,6.50
2019-04-04T23:14:48.591Z,7.90
2019-04-04T23:16:54.170Z,7.03
2019-04-04T23:18:59.665Z,8.10
2019-04-04T23:21:05.177Z,8.03
2019-04-04T23:23:10.716Z,7.53
2019-04-04T23:25:16.182Z,7.42
2019-04-04T23:27:21.655Z,7.33
2019-04-04T23:29:27.202Z,8.10
2019-04-04T23:31:32.699Z,7.97
2019-04-04T23:33:38.146Z,7.58
2019-04-04T23:35:47.029Z,7.83
2019-04-04T23:37:52.542Z,7.03
2019-04-04T23:39:59.233Z,7.87
2019-04-04T23:42:04.686Z,7.17
2019-04-04T23:44:10.617Z,7.15
2019-04-04T23:46:16.050Z,7.55
2019-04-04T23:48:21.530Z,8.55
2019-04-04T23:50:29.711Z,8.20
2019-04-04T23:52:35.226Z,8.25
2019-04-04T23:54:40.691Z,7.80
2019-04-04T23:56:46.131Z,7.40
2019-04-04T23:58:53.684Z,7.45
